createdAt,value
2022-09-28T00:01:00.878Z,90.00
2022-09-28T00:03:33.249Z,90.00
2022-09-28T00:06:14.472Z,90.00
2022-09-28T00:08:45.928Z,90.00
2022-09-28T00:11:31.443Z,90.00
2022-09-28T00:14:08.674Z,90.00
2022-09-28T00:16:54.606Z,90.00
2022-09-28T00:19:39.960Z,90.00
2022-09-28T00:22:16.590Z,90.00
2022-09-28T00:24:47.235Z,90.00
2022-09-28T00:27:15.984Z,90.00
2022-09-28T00:29:47.349Z,90.00
2022-09-28T00:32:19.715Z,90.00
2022-09-28T00:35:08.368Z,90.00
2022-09-28T00:37:42.650Z,90.00
2022-09-28T00:40:11.175Z,90.00
2022-09-28T00:42:38.289Z,90.00
2022-09-28T00:45:31.632Z,90.00
2022-09-28T00:51:46.801Z,90.00
2022-09-28T00:54:33.995Z,90.00
2022-09-28T00:57:11.260Z,90.00
2022-09-28T00:59:52.278Z,90.00
2022-09-28T01:03:19.804Z,90.00
2022-09-28T01:08:36.041Z,90.20
2022-09-28T01:11:06.484Z,90.00
2022-09-28T01:13:39.366Z,90.00
2022-09-28T01:16:59.092Z,90.00
2022-09-28T01:20:13.345Z,90.00
2022-09-28T01:23:20.322Z,90.00
2022-09-28T01:26:50.392Z,90.00
2022-09-28T01:29:29.400Z,90.00
2022-09-28T01:32:20.732Z,90.00
2022-09-28T01:34:58.685Z,90.00
2022-09-28T01:37:38.866Z,90.00
2022-09-28T01:40:09.574Z,90.00
2022-09-28T01:42:43.602Z,90.00
2022-09-28T01:45:23.219Z,90.00
2022-09-28T01:47:59.816Z,90.00
2022-09-28T01:50:29.932Z,90.00
2022-09-28T01:53:35.320Z,90.00
2022-09-28T01:56:16.684Z,90.00
2022-09-28T01:59:03.580Z,90.00
2022-09-28T02:02:12.783Z,90.00
2022-09-28T02:04:52.047Z,90.00
2022-09-28T02:08:13.058Z,90.10
2022-09-28T02:10:52.451Z,90.00
2022-09-28T02:13:42.405Z,90.00
2022-09-28T02:16:35.883Z,90.00
2022-09-28T02:19:17.376Z,90.00
2022-09-28T02:22:02.580Z,90.00
2022-09-28T02:24:41.316Z,90.00
2022-09-28T02:27:40.402Z,90.10
2022-09-28T02:30:08.987Z,90.10
2022-09-28T02:32:55.093Z,90.10
2022-09-28T02:35:26.389Z,90.10
2022-09-28T02:38:05.896Z,90.10
2022-09-28T02:40:44.700Z,90.10
2022-09-28T02:43:52.622Z,90.20
2022-09-28T02:46:45.961Z,90.20
2022-09-28T02:49:36.978Z,90.20
2022-09-28T02:52:25.437Z,90.20
2022-09-28T02:55:23.775Z,90.20
2022-09-28T02:58:10.004Z,90.20
2022-09-28T03:01:07.007Z,90.20
2022-09-28T03:03:43.365Z,90.20
2022-09-28T03:06:43.979Z,90.20
2022-09-28T03:09:42.691Z,90.20
2022-09-28T03:12:16.756Z,90.20
2022-09-28T03:14:49.679Z,90.20
2022-09-28T03:17:37.065Z,90.20
2022-09-28T03:20:23.725Z,90.20
2022-09-28T03:23:23.992Z,90.20
2022-09-28T03:25:54.389Z,90.20
2022-09-28T03:28:23.477Z,90.30
2022-09-28T03:30:51.607Z,90.30
2022-09-28T03:33:21.291Z,90.30
2022-09-28T03:35:53.330Z,90.30
2022-09-28T03:38:30.673Z,90.40
2022-09-28T03:41:04.589Z,90.40
2022-09-28T03:43:35.539Z,90.40
2022-09-28T03:46:02.923Z,90.30
2022-09-28T03:48:37.707Z,90.30
2022-09-28T03:51:07.092Z,90.30
2022-09-28T03:53:36.603Z,90.30
2022-09-28T03:56:05.065Z,90.30
2022-09-28T03:58:34.326Z,90.30
2022-09-28T04:01:06.465Z,90.40
2022-09-28T04:03:39.133Z,90.30
2022-09-28T04:06:07.607Z,90.40
2022-09-28T04:08:50.360Z,90.40
2022-09-28T04:11:38.477Z,90.30
2022-09-28T04:14:18.823Z,90.30
2022-09-28T04:16:54.996Z,90.30
2022-09-28T04:19:33.803Z,90.30
2022-09-28T04:22:02.117Z,90.30
2022-09-28T04:24:32.430Z,90.30
2022-09-28T04:27:19.417Z,90.30
2022-09-28T04:29:46.545Z,90.30
2022-09-28T04:32:16.271Z,90.30
2022-09-28T04:34:49.503Z,90.30
2022-09-28T04:37:16.805Z,90.30
2022-09-28T04:39:48.251Z,90.30
2022-09-28T04:42:19.232Z,90.30
2022-09-28T04:44:51.929Z,90.60
2022-09-28T04:47:19.422Z,90.40
2022-09-28T04:49:48.650Z,90.40
2022-09-28T04:52:24.499Z,90.40
2022-09-28T04:54:56.500Z,90.40
2022-09-28T04:57:24.659Z,90.40
2022-09-28T04:59:51.792Z,90.40
2022-09-28T05:02:21.118Z,90.40
2022-09-28T05:05:01.027Z,90.30
2022-09-28T05:07:30.515Z,90.40
2022-09-28T05:10:00.749Z,90.40
2022-09-28T05:12:30.908Z,90.40
2022-09-28T05:15:01.246Z,90.40
2022-09-28T05:17:32.047Z,90.40
2022-09-28T05:19:59.475Z,90.30
2022-09-28T05:22:28.538Z,90.40
2022-09-28T05:24:58.022Z,90.30
2022-09-28T05:27:30.573Z,90.30
2022-09-28T05:30:02.240Z,90.30
2022-09-28T05:32:32.075Z,90.60
2022-09-28T05:35:02.311Z,90.30
2022-09-28T05:37:29.535Z,90.30
2022-09-28T05:39:58.849Z,90.30
2022-09-28T05:42:28.112Z,90.30
2022-09-28T05:44:59.351Z,90.30
2022-09-28T05:47:27.038Z,90.30
2022-09-28T05:49:58.783Z,90.30
2022-09-28T05:52:28.574Z,90.30
2022-09-28T05:54:58.572Z,90.40
2022-09-28T05:57:30.499Z,90.40
2022-09-28T06:00:02.952Z,90.40
2022-09-28T06:02:34.018Z,90.40
2022-09-28T06:05:01.321Z,90.40
2022-09-28T06:07:31.549Z,90.30
2022-09-28T06:10:02.146Z,90.30
2022-09-28T06:12:31.214Z,90.30
2022-09-28T06:15:01.653Z,90.30
2022-09-28T06:17:28.973Z,90.30
2022-09-28T06:20:03.521Z,90.40
2022-09-28T06:22:33.836Z,90.40
2022-09-28T06:25:06.321Z,90.40
2022-09-28T06:27:36.578Z,90.40
2022-09-28T06:30:22.464Z,90.40
2022-09-28T06:36:40.750Z,90.30
2022-09-28T06:39:24.586Z,90.30
2022-09-28T06:42:00.039Z,90.30
2022-09-28T06:44:36.396Z,90.30
2022-09-28T06:47:25.786Z,90.30
2022-09-28T06:52:45.162Z,90.30
2022-09-28T06:55:25.007Z,90.50
2022-09-28T06:58:05.380Z,90.30
2022-09-28T07:00:36.539Z,90.30
2022-09-28T07:03:05.041Z,90.30
2022-09-28T07:05:34.743Z,90.30
2022-09-28T07:08:28.598Z,90.30
2022-09-28T07:11:00.256Z,90.30
2022-09-28T07:13:49.718Z,90.30
2022-09-28T07:16:19.617Z,90.30
2022-09-28T07:18:48.693Z,90.20
2022-09-28T07:21:38.110Z,90.20
2022-09-28T07:24:06.790Z,90.20
2022-09-28T07:26:33.953Z,90.20
2022-09-28T07:29:01.189Z,90.10
2022-09-28T07:31:29.461Z,90.10
2022-09-28T07:33:57.092Z,90.10
2022-09-28T07:36:31.432Z,90.10
2022-09-28T07:38:58.568Z,90.10
2022-09-28T07:41:32.775Z,90.10
2022-09-28T07:44:07.956Z,90.10
2022-09-28T07:46:50.150Z,90.00
2022-09-28T07:49:19.525Z,90.00
2022-09-28T07:51:59.830Z,90.00
2022-09-28T07:54:30.198Z,89.90
2022-09-28T07:57:08.161Z,89.80
2022-09-28T07:59:35.154Z,89.80
2022-09-28T08:02:02.375Z,89.80
2022-09-28T08:04:34.465Z,89.70
2022-09-28T08:07:04.511Z,89.60
2022-09-28T08:09:31.747Z,89.60
2022-09-28T08:12:02.801Z,89.50
2022-09-28T08:14:42.774Z,89.50
2022-09-28T08:17:15.427Z,89.40
2022-09-28T08:20:01.111Z,89.20
2022-09-28T08:22:35.089Z,89.20
2022-09-28T08:25:02.005Z,89.20
2022-09-28T08:27:31.745Z,89.10
2022-09-28T08:29:58.861Z,88.90
2022-09-28T08:32:26.379Z,88.90
2022-09-28T08:34:56.391Z,88.90
2022-09-28T08:37:23.474Z,88.80
2022-09-28T08:39:52.982Z,88.90
2022-09-28T08:42:42.508Z,88.70
2022-09-28T08:45:15.608Z,88.80
2022-09-28T08:48:15.949Z,88.70
2022-09-28T08:50:54.969Z,88.60
2022-09-28T08:53:24.975Z,88.50
2022-09-28T08:55:54.380Z,88.40
2022-09-28T08:58:30.876Z,88.40
2022-09-28T09:00:59.330Z,88.40
2022-09-28T09:03:44.959Z,88.40
2022-09-28T09:06:40.159Z,88.30
2022-09-28T09:09:25.444Z,88.10
2022-09-28T09:12:40.299Z,88.60
2022-09-28T09:15:23.675Z,87.80
2022-09-28T09:18:20.579Z,87.50
2022-09-28T09:21:29.194Z,87.30
2022-09-28T09:28:08.752Z,86.80
2022-09-28T09:31:06.051Z,86.50
2022-09-28T09:33:53.791Z,86.50
2022-09-28T09:36:26.415Z,86.30
2022-09-28T09:39:26.629Z,86.20
2022-09-28T09:42:07.990Z,86.20
2022-09-28T09:44:49.114Z,86.00
2022-09-28T09:47:37.166Z,85.80
2022-09-28T09:50:32.883Z,85.60
2022-09-28T09:53:25.134Z,85.50
2022-09-28T09:55:57.587Z,85.20
2022-09-28T09:58:36.624Z,85.10
2022-09-28T10:01:08.888Z,85.10
2022-09-28T10:03:37.430Z,85.00
2022-09-28T10:06:18.345Z,84.90
2022-09-28T10:12:49.653Z,84.70
2022-09-28T10:15:30.881Z,84.60
2022-09-28T10:18:46.980Z,84.50
2022-09-28T10:20:57.539Z,84.30
2022-09-28T10:23:39.359Z,84.20
2022-09-28T10:26:37.771Z,84.20
2022-09-28T10:29:26.584Z,84.10
2022-09-28T10:31:54.551Z,84.00
2022-09-28T10:34:31.184Z,83.80
2022-09-28T10:37:24.433Z,83.60
2022-09-28T10:39:55.510Z,83.30
2022-09-28T10:42:38.047Z,82.90
2022-09-28T10:45:22.809Z,82.60
2022-09-28T10:47:53.484Z,82.40
2022-09-28T10:50:39.667Z,82.80
2022-09-28T10:53:23.413Z,81.80
2022-09-28T11:00:00.848Z,81.30
2022-09-28T11:18:19.619Z,80.80
2022-09-28T11:27:29.884Z,80.30
2022-09-28T11:33:48.299Z,79.90
2022-09-28T11:43:32.602Z,79.20
2022-09-28T11:46:26.751Z,79.10
2022-09-28T11:49:28.037Z,78.90
2022-09-28T11:52:08.292Z,78.70
2022-09-28T11:54:42.661Z,78.70
2022-09-28T11:57:17.432Z,78.50
2022-09-28T12:00:03.114Z,78.40
2022-09-28T12:06:29.357Z,78.00
2022-09-28T12:08:58.649Z,78.00
2022-09-28T12:11:46.868Z,77.80
2022-09-28T12:14:38.217Z,77.40
2022-09-28T12:17:33.380Z,77.30
2022-09-28T12:20:06.093Z,77.10
2022-09-28T12:22:45.017Z,77.10
2022-09-28T12:25:17.293Z,77.10
2022-09-28T12:27:52.922Z,77.50
2022-09-28T12:30:21.216Z,76.80
2022-09-28T12:33:06.896Z,76.90
2022-09-28T12:36:08.870Z,76.10
2022-09-28T12:38:48.290Z,75.90
2022-09-28T12:41:43.610Z,75.70
2022-09-28T12:44:36.951Z,75.50
2022-09-28T12:47:16.541Z,75.40
2022-09-28T12:52:49.110Z,75.10
2022-09-28T12:55:48.792Z,75.00
2022-09-28T12:58:40.568Z,74.80
2022-09-28T13:01:25.894Z,74.80
2022-09-28T13:04:00.883Z,74.60
2022-09-28T13:06:40.626Z,74.60
2022-09-28T13:09:16.887Z,74.40
2022-09-28T13:12:22.647Z,74.50
2022-09-28T13:14:56.452Z,74.20
2022-09-28T13:17:38.908Z,74.20
2022-09-28T13:20:20.563Z,74.30
2022-09-28T13:23:07.058Z,74.10
2022-09-28T13:25:36.572Z,73.90
2022-09-28T13:28:05.138Z,73.80
2022-09-28T13:30:40.550Z,73.50
2022-09-28T13:33:08.065Z,73.20
2022-09-28T13:35:35.269Z,73.00
2022-09-28T13:38:20.894Z,72.90
2022-09-28T13:41:06.355Z,72.70
2022-09-28T13:44:11.115Z,72.70
2022-09-28T13:47:21.222Z,72.70
2022-09-28T13:50:26.097Z,72.80
2022-09-28T13:53:05.404Z,72.80
2022-09-28T13:55:52.816Z,72.90
2022-09-28T13:58:25.911Z,72.80
2022-09-28T14:01:04.314Z,72.80
2022-09-28T14:04:00.760Z,72.60
2022-09-28T14:06:44.493Z,72.30
2022-09-28T14:09:19.547Z,72.20
2022-09-28T14:12:31.404Z,72.20
2022-09-28T14:15:38.304Z,71.90
2022-09-28T14:18:33.697Z,71.80
2022-09-28T14:21:21.683Z,71.70
2022-09-28T14:24:11.812Z,71.60
2022-09-28T14:30:54.227Z,71.40
2022-09-28T14:33:31.597Z,71.30
2022-09-28T14:39:39.945Z,71.20
2022-09-28T14:42:21.555Z,70.90
2022-09-28T14:45:57.443Z,70.90
2022-09-28T14:52:23.988Z,71.00
2022-09-28T14:54:59.966Z,71.00
2022-09-28T14:58:26.335Z,70.90
2022-09-28T15:00:30.478Z,70.70
2022-09-28T15:03:11.428Z,70.70
2022-09-28T15:05:50.111Z,70.40
2022-09-28T15:08:23.174Z,70.30
2022-09-28T15:11:19.291Z,70.10
2022-09-28T15:13:49.161Z,70.10
2022-09-28T15:16:54.735Z,70.10
2022-09-28T15:20:05.251Z,70.10
2022-09-28T15:22:33.751Z,69.90
2022-09-28T15:25:04.095Z,70.00
2022-09-28T15:27:37.548Z,69.80
2022-09-28T15:30:19.177Z,69.60
2022-09-28T15:32:46.229Z,69.50
2022-09-28T15:35:17.408Z,69.60
2022-09-28T15:37:45.438Z,69.60
2022-09-28T15:40:14.024Z,69.40
2022-09-28T15:42:41.145Z,69.30
2022-09-28T15:45:38.629Z,69.20
2022-09-28T15:48:26.540Z,68.90
2022-09-28T15:51:13.309Z,68.90
2022-09-28T15:53:46.936Z,69.00
2022-09-28T15:56:14.107Z,69.10
2022-09-28T15:58:41.059Z,69.10
2022-09-28T16:01:32.158Z,69.10
2022-09-28T16:04:00.322Z,68.70
2022-09-28T16:06:32.923Z,68.90
2022-09-28T16:09:00.143Z,68.80
2022-09-28T16:15:28.789Z,68.30
2022-09-28T16:17:58.358Z,68.50
2022-09-28T16:20:30.142Z,68.40
2022-09-28T16:23:30.421Z,68.30
2022-09-28T16:30:29.872Z,68.00
2022-09-28T16:37:48.916Z,68.00
2022-09-28T16:51:55.412Z,68.10
2022-09-28T16:58:56.717Z,68.20
2022-09-28T17:12:38.488Z,69.60
2022-09-28T17:15:11.893Z,69.80
2022-09-28T17:17:43.019Z,70.10
2022-09-28T17:20:34.145Z,70.40
2022-09-28T17:23:12.224Z,70.70
2022-09-28T17:25:41.315Z,71.00
2022-09-28T17:28:22.124Z,71.10
2022-09-28T17:34:55.828Z,71.50
2022-09-28T17:37:50.079Z,71.70
2022-09-28T17:40:31.567Z,71.90
2022-09-28T17:43:00.811Z,72.10
2022-09-28T20:15:34.107Z,79.30
2022-09-28T20:18:26.485Z,79.30
2022-09-28T20:21:17.210Z,79.40
2022-09-28T20:26:49.800Z,79.60
2022-09-28T20:29:20.069Z,79.70
2022-09-28T20:31:56.012Z,79.80
2022-09-28T20:35:30.600Z,80.30
2022-09-28T20:38:10.772Z,80.00
2022-09-28T20:40:45.544Z,80.00
2022-09-28T20:43:18.969Z,80.00
2022-09-28T20:49:11.385Z,80.20
2022-09-28T20:52:06.465Z,80.20
2022-09-28T20:57:56.053Z,80.30
2022-09-28T21:11:40.053Z,80.40
2022-09-28T21:14:21.093Z,80.40
2022-09-28T21:17:07.244Z,80.40
2022-09-28T21:19:35.181Z,80.50
2022-09-28T21:26:34.259Z,80.60
2022-09-28T21:29:08.349Z,80.60
2022-09-28T21:31:46.185Z,80.70
2022-09-28T21:34:14.274Z,80.70
2022-09-28T21:36:44.666Z,80.80
2022-09-28T21:47:35.437Z,81.20
2022-09-28T22:01:09.269Z,81.30
2022-09-28T22:07:54.468Z,81.40
2022-09-28T22:10:34.757Z,81.30
2022-09-28T22:14:06.458Z,81.40
2022-09-28T22:16:27.571Z,81.50
2022-09-28T22:19:57.295Z,81.50
2022-09-28T22:22:47.005Z,81.60
2022-09-28T22:25:16.701Z,81.60
2022-09-28T22:29:25.473Z,81.60
2022-09-28T22:32:06.293Z,81.70
2022-09-28T22:40:31.767Z,81.70
2022-09-28T22:43:18.276Z,81.70
2022-09-28T22:49:20.152Z,82.40
2022-09-28T22:52:07.871Z,81.80
2022-09-28T22:55:03.016Z,81.80
2022-09-28T22:58:02.256Z,81.80
2022-09-28T23:00:47.861Z,81.90
2022-09-28T23:04:17.006Z,81.90
2022-09-28T23:06:44.156Z,82.00
2022-09-28T23:09:11.647Z,81.90
2022-09-28T23:11:41.657Z,82.00
2022-09-28T23:14:35.599Z,82.00
2022-09-28T23:17:28.844Z,82.10
2022-09-28T23:22:58.576Z,82.20
2022-09-28T23:25:35.225Z,82.30
2022-09-28T23:28:12.839Z,82.30
2022-09-28T23:31:26.080Z,82.40
2022-09-28T23:34:19.807Z,82.40
2022-09-28T23:36:57.419Z,82.40
2022-09-28T23:39:37.331Z,82.40
2022-09-28T23:42:13.980Z,82.40
2022-09-28T23:44:51.111Z,82.50
2022-09-28T23:47:28.506Z,82.50
2022-09-28T23:49:57.694Z,82.60
2022-09-28T23:52:34.586Z,82.70
2022-09-28T23:55:09.107Z,82.70
2022-09-28T23:57:55.589Z,82.80
